Main page
METAR-TAF:

METAR-TAF

Airports :

Gran Canaria Airport

Gran Canaria, Spain

latitude: 27-56N, longitude: 015-23W, elevation: 23 m

Current weather observation

The report was made 18 minutes ago, at 19:30 UTC
Wind 18 kt from the North/Northeast
Temperature 22°C
Humidity 69%
Pressure 1020 hPa
Visibility 10 km or more
Few clouds at a height of 2500 ft

METAR: GCLP 091930Z 02018KT 9999 FEW025 22/16 Q1020 NOSIG

Time: 20:48 (19:48 UTC)

Forecast

The report was made 5 hours and 48 minutes ago, at 14:00 UTC
Forecast valid from 09 at 15 UTC to 10 at 15 UTC
Wind 24 kt from the North/Northeast
Visibility 10 km or more
Few clouds at a height of 2500 ft
Becoming
from 09 at 18 UTC to 09 at 20 UTC
Wind 14 kt from the North

TAF: GCLP 091400Z 0915/1015 02024KT 9999 FEW025 TX25/0915Z TN19/1005Z BECMG 0918/0920 36014KT

Weather observations and forecasts of more than 4000 airports (METAR and TAF reports).

The available stations are represented by yellow and red dots on the map.

Hover mouse over dot to see the name of the station.

Then click to see weather observations and forecasts.

To change the map : click on the green buttons with a black cross to zoom in, on the green button with a dash to zoom out, or on the green arrows for adjacent maps.


METAR-TAF: